createdAt,value
2018-07-06T00:02:15.546Z,99.90
2018-07-06T00:04:55.117Z,99.90
2018-07-06T00:07:34.702Z,99.90
2018-07-06T00:10:14.400Z,99.90
2018-07-06T00:12:54.145Z,99.90
2018-07-06T00:15:33.890Z,99.90
2018-07-06T00:18:13.431Z,99.90
2018-07-06T00:23:26.778Z,99.90
2018-07-06T00:31:14.077Z,99.90
2018-07-06T00:33:53.758Z,99.90
2018-07-06T00:36:33.546Z,99.90
2018-07-06T00:39:13.182Z,99.90
2018-07-06T00:41:52.811Z,99.90
2018-07-06T00:47:06.258Z,99.90
2018-07-06T00:52:20.038Z,99.90
2018-07-06T00:54:59.793Z,99.90
2018-07-06T00:57:44.807Z,99.90
2018-07-06T01:00:24.624Z,99.90
2018-07-06T01:03:04.338Z,99.90
2018-07-06T01:05:43.963Z,99.90
2018-07-06T01:10:57.083Z,99.90
2018-07-06T01:13:36.718Z,99.90
2018-07-06T01:16:16.258Z,99.90
2018-07-06T01:18:55.876Z,99.90
2018-07-06T01:21:35.764Z,99.90
2018-07-06T01:26:49.518Z,99.90
2018-07-06T01:32:02.906Z,99.90
2018-07-06T01:34:42.531Z,99.90
2018-07-06T01:37:22.424Z,99.90
2018-07-06T01:40:02.130Z,99.90
2018-07-06T01:42:41.882Z,99.90
2018-07-06T01:45:21.492Z,99.90
2018-07-06T01:48:01.125Z,99.90
2018-07-06T01:53:14.737Z,99.90
2018-07-06T01:55:54.446Z,99.90
2018-07-06T01:58:33.971Z,99.90
2018-07-06T02:01:13.647Z,99.90
2018-07-06T02:03:53.297Z,99.90
2018-07-06T02:06:32.875Z,99.90
2018-07-06T02:09:12.356Z,99.90
2018-07-06T02:11:51.962Z,99.90
2018-07-06T02:17:05.344Z,99.90
2018-07-06T02:19:44.897Z,99.90
2018-07-06T02:22:24.404Z,99.90
2018-07-06T02:25:03.891Z,99.90
2018-07-06T02:27:43.437Z,99.90
2018-07-06T02:30:22.961Z,99.90
2018-07-06T02:33:02.557Z,99.90
2018-07-06T02:35:42.101Z,99.90
2018-07-06T02:38:21.717Z,99.90
2018-07-06T02:41:01.359Z,99.90
2018-07-06T02:43:41.001Z,99.90
2018-07-06T02:46:20.745Z,99.90
2018-07-06T02:49:00.418Z,99.90
2018-07-06T02:51:40.089Z,99.90
2018-07-06T02:54:19.833Z,99.90
2018-07-06T02:56:59.603Z,99.90
2018-07-06T02:59:39.323Z,99.90
2018-07-06T03:02:18.993Z,99.90
2018-07-06T03:04:58.621Z,99.90
2018-07-06T03:07:38.134Z,99.90
2018-07-06T03:10:17.770Z,99.90
2018-07-06T03:12:57.540Z,99.90
2018-07-06T03:15:37.055Z,99.90
2018-07-06T03:18:16.794Z,99.90
2018-07-06T03:20:56.435Z,99.90
2018-07-06T03:23:36.169Z,99.90
2018-07-06T03:26:15.841Z,99.90
2018-07-06T03:28:55.455Z,99.90
2018-07-06T03:31:34.993Z,99.90
2018-07-06T03:34:14.637Z,99.90
2018-07-06T03:36:54.411Z,99.90
2018-07-06T03:39:34.261Z,99.90
2018-07-06T03:42:13.993Z,99.90
2018-07-06T03:44:53.821Z,99.90
2018-07-06T03:47:33.458Z,99.90
2018-07-06T03:50:13.098Z,99.90
2018-07-06T03:52:52.712Z,99.90
2018-07-06T03:55:32.338Z,99.90
2018-07-06T03:58:12.010Z,99.90
2018-07-06T04:03:25.374Z,99.90
2018-07-06T04:06:04.998Z,99.90
2018-07-06T04:13:51.989Z,99.90
2018-07-06T04:16:31.665Z,99.90
2018-07-06T04:19:12.073Z,99.90
2018-07-06T04:21:53.125Z,99.90
2018-07-06T04:27:06.566Z,99.90
2018-07-06T04:32:20.077Z,99.90
2018-07-06T04:34:59.756Z,99.90
2018-07-06T04:40:12.993Z,99.90
2018-07-06T04:42:52.646Z,99.90
2018-07-06T04:48:05.841Z,99.90
2018-07-06T04:50:45.622Z,99.90
2018-07-06T04:53:25.381Z,99.90
2018-07-06T04:58:38.733Z,99.90
2018-07-06T05:01:18.369Z,99.90
2018-07-06T05:03:58.113Z,99.90
2018-07-06T05:09:11.447Z,99.90
2018-07-06T05:11:51.274Z,99.90
2018-07-06T05:14:30.857Z,99.90
2018-07-06T05:17:10.386Z,99.90
2018-07-06T05:24:57.511Z,99.90
2018-07-06T05:27:37.194Z,99.90
2018-07-06T05:30:16.930Z,99.90
2018-07-06T05:32:56.438Z,99.90
2018-07-06T05:35:36.125Z,99.90
2018-07-06T05:38:15.745Z,99.90
2018-07-06T05:40:55.401Z,99.90
2018-07-06T05:43:35.004Z,99.90
2018-07-06T05:46:14.642Z,99.90
2018-07-06T05:48:54.197Z,99.90
2018-07-06T05:54:07.778Z,99.90
2018-07-06T05:56:47.538Z,99.90
2018-07-06T05:59:27.134Z,99.90
2018-07-06T06:04:40.562Z,99.90
2018-07-06T06:07:22.306Z,99.90
2018-07-06T06:09:50.773Z,99.90
2018-07-06T06:12:19.344Z,99.90
2018-07-06T06:14:47.853Z,99.90
2018-07-06T06:17:16.340Z,99.90
2018-07-06T06:19:44.853Z,99.90
2018-07-06T06:22:13.352Z,99.90
2018-07-06T06:24:41.883Z,99.90
2018-07-06T06:27:10.325Z,99.90
2018-07-06T06:29:39.011Z,99.90
2018-07-06T06:32:08.244Z,99.90
2018-07-06T06:34:36.712Z,99.90
2018-07-06T06:37:05.221Z,99.90
2018-07-06T06:39:33.925Z,99.90
2018-07-06T06:42:02.624Z,99.90
2018-07-06T06:44:31.212Z,99.90
2018-07-06T06:47:00.337Z,99.90
2018-07-06T06:49:30.241Z,99.90
2018-07-06T06:54:27.229Z,99.90
2018-07-06T06:56:55.780Z,99.90
2018-07-06T06:59:24.365Z,99.90
2018-07-06T07:04:21.434Z,99.90
2018-07-06T07:06:49.986Z,99.90
2018-07-06T07:09:18.427Z,99.90
2018-07-06T07:11:46.947Z,99.90
2018-07-06T07:14:15.473Z,99.90
2018-07-06T07:16:43.933Z,99.90
2018-07-06T07:19:12.437Z,99.90
2018-07-06T07:21:40.942Z,99.90
2018-07-06T07:24:09.456Z,99.90
2018-07-06T07:26:37.909Z,99.90
2018-07-06T07:29:06.397Z,99.90
2018-07-06T07:31:34.866Z,99.90
2018-07-06T07:34:03.409Z,99.90
2018-07-06T07:36:31.866Z,99.90
2018-07-06T07:39:00.430Z,99.90
2018-07-06T07:41:28.938Z,99.90
2018-07-06T07:43:57.453Z,99.90
2018-07-06T07:46:26.007Z,99.90
2018-07-06T07:48:54.426Z,99.90
2018-07-06T07:52:01.483Z,99.90
2018-07-06T07:54:32.115Z,99.90
2018-07-06T07:57:01.394Z,99.90
2018-07-06T07:59:31.473Z,99.90
2018-07-06T08:02:00.847Z,99.90
2018-07-06T08:04:29.394Z,99.90
2018-07-06T08:06:58.027Z,99.90
2018-07-06T08:09:26.793Z,99.90
2018-07-06T08:11:56.726Z,99.90
2018-07-06T08:14:25.303Z,99.90
2018-07-06T08:16:53.748Z,99.90
2018-07-06T08:19:22.561Z,99.90
2018-07-06T08:21:51.138Z,99.90
2018-07-06T08:24:20.246Z,99.90
2018-07-06T08:26:48.891Z,99.90
2018-07-06T08:31:45.767Z,99.90
2018-07-06T08:34:25.509Z,99.90
2018-07-06T08:37:36.605Z,99.90
2018-07-06T08:40:05.133Z,99.90
2018-07-06T08:42:34.670Z,99.90
2018-07-06T08:45:03.661Z,99.90
2018-07-06T08:47:32.054Z,99.90
2018-07-06T08:50:01.345Z,99.90
2018-07-06T08:52:30.006Z,99.90
2018-07-06T08:54:58.453Z,99.90
2018-07-06T08:57:28.226Z,99.90
2018-07-06T08:59:56.742Z,99.90
2018-07-06T09:02:25.706Z,99.90
2018-07-06T09:04:55.081Z,99.90
2018-07-06T09:09:52.474Z,99.90
2018-07-06T09:12:20.960Z,99.90
2018-07-06T09:14:49.433Z,99.90
2018-07-06T09:17:18.852Z,99.90
2018-07-06T09:19:47.670Z,99.90
2018-07-06T09:22:16.633Z,99.90
2018-07-06T09:24:46.003Z,99.90
2018-07-06T09:27:14.529Z,99.90
2018-07-06T09:29:43.010Z,99.90
2018-07-06T09:32:11.593Z,99.90
2018-07-06T09:34:40.438Z,99.90
2018-07-06T09:37:09.164Z,99.90
2018-07-06T09:39:38.313Z,99.90
2018-07-06T09:42:06.802Z,99.90
2018-07-06T09:44:35.308Z,99.90
2018-07-06T09:47:03.946Z,99.90
2018-07-06T09:49:32.392Z,99.90
2018-07-06T09:52:00.993Z,98.40
2018-07-06T09:54:29.465Z,99.90
2018-07-06T09:56:57.945Z,99.90
2018-07-06T09:59:26.456Z,97.00
2018-07-06T10:01:54.924Z,97.00
2018-07-06T10:04:23.389Z,95.90
2018-07-06T10:06:51.897Z,95.40
2018-07-06T10:09:20.345Z,95.80
2018-07-06T10:11:48.771Z,95.10
2018-07-06T10:14:17.258Z,93.50
2018-07-06T10:16:45.721Z,91.50
2018-07-06T10:19:14.270Z,90.40
2018-07-06T10:21:42.753Z,83.90
2018-07-06T10:24:11.285Z,90.50
2018-07-06T10:26:39.759Z,89.00
2018-07-06T10:30:25.145Z,80.90
2018-07-06T10:32:53.589Z,82.70
2018-07-06T10:35:22.060Z,84.80
2018-07-06T10:37:50.521Z,86.40
2018-07-06T10:40:18.984Z,81.60
2018-07-06T10:42:47.435Z,77.80
2018-07-06T10:45:15.894Z,69.90
2018-07-06T10:47:44.345Z,63.40
2018-07-06T10:50:12.834Z,71.60
2018-07-06T10:52:41.306Z,67.10
2018-07-06T10:55:09.764Z,72.20
2018-07-06T10:57:38.229Z,69.90
2018-07-06T11:00:06.726Z,79.80
2018-07-06T11:02:35.183Z,71.20
2018-07-06T11:05:03.706Z,64.30
2018-07-06T11:07:32.123Z,68.50
2018-07-06T11:10:00.608Z,76.60
2018-07-06T11:12:29.061Z,75.70
2018-07-06T11:14:57.554Z,75.30
2018-07-06T11:17:26.022Z,68.60
2018-07-06T11:19:54.496Z,61.20
2018-07-06T11:22:22.977Z,66.80
2018-07-06T11:24:51.461Z,74.80
2018-07-06T11:27:19.893Z,64.30
2018-07-06T11:29:48.393Z,71.70
2018-07-06T11:32:16.823Z,78.60
2018-07-06T11:34:45.308Z,89.40
2018-07-06T11:37:13.737Z,92.60
2018-07-06T11:39:42.218Z,91.60
2018-07-06T11:42:10.657Z,90.40
2018-07-06T11:47:07.256Z,82.10
2018-07-06T11:49:35.681Z,76.10
2018-07-06T11:54:32.822Z,70.80
2018-07-06T11:57:01.307Z,75.30
2018-07-06T11:59:29.749Z,75.10
2018-07-06T12:01:58.190Z,76.60
2018-07-06T12:04:26.681Z,78.70
2018-07-06T12:06:55.071Z,82.80
2018-07-06T12:09:23.500Z,84.60
2018-07-06T12:11:51.985Z,91.70
2018-07-06T12:14:20.440Z,92.10
2018-07-06T12:16:48.913Z,84.10
2018-07-06T12:19:17.373Z,89.10
2018-07-06T12:21:45.850Z,88.00
2018-07-06T12:24:14.288Z,80.80
2018-07-06T12:26:42.754Z,85.90
2018-07-06T12:29:16.740Z,89.60
2018-07-06T12:31:51.721Z,91.10
2018-07-06T12:34:26.309Z,92.60
2018-07-06T12:37:01.851Z,91.50
2018-07-06T12:39:36.501Z,94.80
2018-07-06T12:42:05.226Z,95.50
2018-07-06T12:44:33.669Z,95.20
2018-07-06T12:47:02.115Z,96.30
2018-07-06T12:49:30.597Z,93.70
2018-07-06T12:51:59.017Z,92.20
2018-07-06T12:54:27.481Z,86.90
2018-07-06T12:56:55.919Z,87.70
2018-07-06T12:59:24.399Z,91.70
2018-07-06T13:01:52.841Z,91.20
2018-07-06T13:06:49.422Z,93.60
2018-07-06T13:09:17.907Z,93.70
2018-07-06T13:11:46.333Z,92.30
2018-07-06T13:14:14.781Z,89.70
2018-07-06T13:16:43.218Z,86.80
2018-07-06T13:21:39.877Z,86.40
2018-07-06T13:29:05.010Z,69.70
2018-07-06T13:31:33.494Z,72.00
2018-07-06T13:34:01.949Z,73.50
2018-07-06T13:36:30.381Z,70.40
2018-07-06T13:38:58.863Z,63.90
2018-07-06T13:41:27.279Z,57.90
2018-07-06T13:43:55.702Z,53.40
2018-07-06T13:46:24.166Z,50.10
2018-07-06T13:51:20.754Z,52.10
2018-07-06T13:53:49.190Z,49.10
2018-07-06T13:58:45.789Z,46.90
2018-07-06T14:01:14.274Z,42.10
2018-07-06T14:03:42.714Z,46.70
2018-07-06T14:06:11.174Z,44.60
2018-07-06T14:08:39.590Z,42.30
2018-07-06T14:11:08.070Z,44.50
2018-07-06T14:13:36.517Z,46.00
2018-07-06T14:16:04.997Z,44.70
2018-07-06T14:21:01.610Z,42.00
2018-07-06T14:23:30.042Z,40.10
2018-07-06T14:25:58.512Z,44.00
2018-07-06T14:30:55.118Z,39.50
2018-07-06T14:33:23.577Z,41.20
2018-07-06T14:35:52.035Z,39.10
2018-07-06T14:38:20.493Z,39.70
2018-07-06T14:40:49.155Z,41.50
2018-07-06T14:43:17.581Z,39.30
2018-07-06T14:45:46.054Z,39.10
2018-07-06T14:48:14.522Z,38.60
2018-07-06T14:50:42.946Z,41.10
2018-07-06T14:53:11.397Z,39.20
2018-07-06T14:55:39.854Z,41.70
2018-07-06T14:58:08.316Z,36.90
2018-07-06T15:00:36.742Z,38.40
2018-07-06T15:03:05.253Z,40.20
2018-07-06T15:05:33.685Z,41.10
2018-07-06T15:10:30.266Z,38.20
2018-07-06T15:13:05.378Z,43.00
2018-07-06T15:15:34.110Z,49.60
2018-07-06T15:18:02.622Z,54.20
2018-07-06T15:20:31.058Z,55.20
2018-07-06T15:22:59.517Z,50.20
2018-07-06T15:25:27.997Z,47.50
2018-07-06T15:27:56.478Z,44.30
2018-07-06T15:30:24.897Z,48.70
2018-07-06T15:32:53.360Z,47.60
2018-07-06T15:35:21.821Z,50.00
2018-07-06T15:37:50.303Z,48.70
2018-07-06T15:40:18.745Z,46.70
2018-07-06T15:42:47.194Z,43.50
2018-07-06T15:45:15.648Z,44.10
2018-07-06T15:47:44.102Z,41.20
2018-07-06T15:50:12.561Z,45.40
2018-07-06T15:52:41.021Z,49.20
2018-07-06T15:55:09.482Z,53.80
2018-07-06T15:57:37.961Z,53.00
2018-07-06T16:00:06.421Z,53.80
2018-07-06T16:02:34.874Z,51.40
2018-07-06T16:05:03.350Z,57.30
2018-07-06T16:07:31.829Z,57.40
2018-07-06T16:10:00.281Z,55.30
2018-07-06T16:12:28.722Z,53.10
2018-07-06T16:14:57.174Z,52.90
2018-07-06T16:17:25.659Z,54.60
2018-07-06T16:22:22.293Z,54.90
2018-07-06T16:24:50.972Z,56.70
2018-07-06T16:27:19.403Z,54.70
2018-07-06T16:29:47.905Z,58.00
2018-07-06T16:32:16.365Z,58.50
2018-07-06T16:34:44.824Z,58.80
2018-07-06T16:37:13.274Z,68.30
2018-07-06T16:39:41.717Z,67.50
2018-07-06T16:42:10.190Z,67.60
2018-07-06T16:44:38.643Z,67.20
2018-07-06T16:47:07.397Z,63.80
2018-07-06T16:49:35.881Z,65.90
2018-07-06T16:52:04.319Z,68.70
2018-07-06T16:54:32.750Z,71.50
2018-07-06T16:59:29.369Z,77.50
2018-07-06T17:01:57.849Z,77.50
2018-07-06T17:04:26.281Z,75.50
2018-07-06T17:09:22.858Z,84.20
2018-07-06T17:11:51.349Z,84.90
2018-07-06T17:14:19.773Z,85.00
2018-07-06T17:16:48.226Z,87.40
2018-07-06T17:19:16.702Z,86.40
2018-07-06T17:21:45.158Z,87.60
2018-07-06T17:24:13.605Z,87.60
2018-07-06T17:26:42.079Z,87.40
2018-07-06T17:29:10.529Z,88.50
2018-07-06T17:31:38.994Z,87.30
2018-07-06T17:34:07.418Z,90.80
2018-07-06T17:36:35.906Z,89.20
2018-07-06T17:41:32.525Z,90.80
2018-07-06T17:44:00.990Z,93.60
2018-07-06T17:46:29.442Z,93.10
2018-07-06T17:48:57.901Z,92.80
2018-07-06T17:51:26.390Z,93.70
2018-07-06T17:53:54.849Z,94.50
2018-07-06T17:56:23.297Z,93.30
2018-07-06T17:58:51.818Z,94.70
2018-07-06T18:03:48.445Z,94.50
2018-07-06T18:06:16.878Z,95.70
2018-07-06T18:08:45.369Z,95.40
2018-07-06T18:11:13.818Z,95.70
2018-07-06T18:16:10.609Z,95.30
2018-07-06T18:23:35.359Z,95.30
2018-07-06T18:26:03.829Z,95.70
2018-07-06T18:28:32.320Z,95.20
2018-07-06T18:31:00.766Z,96.60
2018-07-06T18:33:29.226Z,96.10
2018-07-06T18:35:57.915Z,96.40
2018-07-06T18:38:26.374Z,97.10
2018-07-06T18:43:22.979Z,97.30
2018-07-06T18:45:51.429Z,97.70
2018-07-06T18:48:19.910Z,98.20
2018-07-06T18:50:48.361Z,98.30
2018-07-06T18:53:16.955Z,98.10
2018-07-06T18:55:45.402Z,98.40
2018-07-06T18:58:13.841Z,98.30
2018-07-06T19:00:42.348Z,99.30
2018-07-06T19:03:10.811Z,98.60
2018-07-06T19:05:39.334Z,99.10
2018-07-06T19:08:07.794Z,99.20
2018-07-06T19:10:36.268Z,99.40
2018-07-06T19:13:04.747Z,99.70
2018-07-06T19:15:33.228Z,99.90
2018-07-06T19:18:01.693Z,99.90
2018-07-06T19:20:30.197Z,99.90
2018-07-06T19:22:58.645Z,99.90
2018-07-06T19:25:27.105Z,99.90
2018-07-06T19:27:55.588Z,99.90
2018-07-06T19:30:24.456Z,99.90
2018-07-06T19:32:52.910Z,99.90
2018-07-06T19:35:21.431Z,99.90
2018-07-06T19:37:49.897Z,99.90
2018-07-06T19:40:18.379Z,99.90
2018-07-06T19:42:47.078Z,99.90
2018-07-06T19:45:15.677Z,99.90
2018-07-06T19:47:44.129Z,99.90
2018-07-06T19:50:12.625Z,99.90
2018-07-06T19:52:41.057Z,99.90
2018-07-06T19:55:09.560Z,99.90
2018-07-06T19:57:38.116Z,99.90
2018-07-06T20:00:06.741Z,99.90
2018-07-06T20:02:35.221Z,99.90
2018-07-06T20:05:03.718Z,99.90
2018-07-06T20:07:32.214Z,99.90
2018-07-06T20:10:00.667Z,99.90
2018-07-06T20:12:29.118Z,99.90
2018-07-06T20:14:57.597Z,99.90
2018-07-06T20:17:27.006Z,99.90
2018-07-06T20:19:55.465Z,99.90
2018-07-06T20:22:23.964Z,99.90
2018-07-06T20:24:52.429Z,99.90
2018-07-06T20:27:20.936Z,99.90
2018-07-06T20:29:49.382Z,99.90
2018-07-06T20:32:17.878Z,99.90
2018-07-06T20:34:46.436Z,99.90
2018-07-06T20:37:14.932Z,99.90
2018-07-06T20:39:43.413Z,99.90
2018-07-06T20:42:11.914Z,99.90
2018-07-06T20:44:40.374Z,99.90
2018-07-06T20:47:09.064Z,99.90
2018-07-06T20:49:37.622Z,99.90
2018-07-06T20:52:06.121Z,99.90
2018-07-06T20:54:34.604Z,99.90
2018-07-06T20:57:03.075Z,99.90
2018-07-06T20:59:31.545Z,99.90
2018-07-06T21:02:00.017Z,99.90
2018-07-06T21:04:28.539Z,99.90
2018-07-06T21:09:25.195Z,99.90
2018-07-06T21:11:53.694Z,99.90
2018-07-06T21:14:22.168Z,99.90
2018-07-06T21:16:50.617Z,99.90
2018-07-06T21:19:19.150Z,99.90
2018-07-06T21:24:15.798Z,99.90
2018-07-06T21:31:40.597Z,99.90
2018-07-06T21:34:09.109Z,99.90
2018-07-06T21:39:06.198Z,99.90
2018-07-06T21:41:34.628Z,99.90
2018-07-06T21:44:03.125Z,99.90
2018-07-06T21:48:59.714Z,99.90
2018-07-06T21:51:28.205Z,99.90
2018-07-06T21:53:56.729Z,99.90
2018-07-06T21:56:25.209Z,99.90
2018-07-06T21:58:53.738Z,99.90
2018-07-06T22:01:22.846Z,99.90
2018-07-06T22:03:51.333Z,99.90
2018-07-06T22:06:19.822Z,99.90
2018-07-06T22:08:48.278Z,99.90
2018-07-06T22:11:16.785Z,99.90
2018-07-06T22:13:45.222Z,99.90
2018-07-06T22:16:13.743Z,99.90
2018-07-06T22:18:42.251Z,99.90
2018-07-06T22:21:10.732Z,99.90
2018-07-06T22:23:39.177Z,99.90
2018-07-06T22:26:07.683Z,99.90
2018-07-06T22:28:36.145Z,99.90
2018-07-06T22:31:04.638Z,99.90
2018-07-06T22:33:33.090Z,99.90
2018-07-06T22:36:01.596Z,99.90
2018-07-06T22:38:30.053Z,99.90
2018-07-06T22:40:58.573Z,99.90
2018-07-06T22:43:27.029Z,99.90
2018-07-06T22:45:55.499Z,99.90
2018-07-06T22:48:23.980Z,99.90
2018-07-06T22:50:52.430Z,99.90
2018-07-06T22:53:20.893Z,99.90
2018-07-06T22:55:49.373Z,99.90
2018-07-06T22:58:17.857Z,99.90
2018-07-06T23:00:46.316Z,99.90
2018-07-06T23:03:14.777Z,99.90
2018-07-06T23:05:43.291Z,99.90
2018-07-06T23:13:08.084Z,99.90
2018-07-06T23:15:36.533Z,99.90
2018-07-06T23:18:05.137Z,99.90
2018-07-06T23:20:33.561Z,99.90
2018-07-06T23:25:33.729Z,99.90
2018-07-06T23:28:02.209Z,99.90
2018-07-06T23:30:30.697Z,99.90
2018-07-06T23:33:00.274Z,99.90
2018-07-06T23:35:28.778Z,99.90
2018-07-06T23:37:57.310Z,99.90
2018-07-06T23:40:25.817Z,99.90
2018-07-06T23:42:54.347Z,99.90
2018-07-06T23:45:23.186Z,99.90
2018-07-06T23:47:51.682Z,99.90
2018-07-06T23:50:20.679Z,99.90
2018-07-06T23:52:49.162Z,99.90
2018-07-06T23:55:17.818Z,99.90
2018-07-06T23:57:46.709Z,99.90
